Terminal Aerodrome Forecast
Issued by NWS Goodland, KS

Home | Current Version | Previous Version | Text Only | Print | Product List | Glossary On
Versions: 1 2 3 4 5 6 7 8 9 10 11 12 13 14 15 16 17 18 19
000
FTUS43 KGLD 222320
TAFGLD
TAF
KGLD 222320Z 2300/2324 11015G22KT P6SM VCTS BKN050CB
      TEMPO 2300/2303 VRB25G50KT 3SM TSRA BKN035CB
     FM230300 04010G16KT P6SM VCTS BKN080CB
     FM230700 26010KT P6SM SCT015 SCT200
     FM231500 20010KT P6SM SCT200=

USA.gov is the U.S. government's official web portal to all federal, state and local government web resources and services.